createdAt,value
2022-12-14T00:05:23.152Z,2.7123745819397995
2022-12-14T00:15:26.745Z,3.2642140468227425
2022-12-14T00:28:32.187Z,2.8127090301003346
2022-12-14T00:34:54.475Z,3.016722408026756
2022-12-14T00:45:33.482Z,3.668896321070234
2022-12-14T00:51:56.200Z,3.17056856187291
2022-12-14T00:58:18.683Z,2.3076923076923075
2022-12-14T01:04:40.906Z,2.237458193979933
2022-12-14T01:13:11.434Z,3.0434782608695654
2022-12-14T01:32:16.614Z,3.431438127090301
2022-12-14T01:38:39.271Z,3.1438127090301005
2022-12-14T01:45:04.536Z,2.9364548494983276
2022-12-14T01:53:50.347Z,2.6454849498327757
2022-12-14T02:02:46.726Z,3.120401337792642
2022-12-14T02:15:36.572Z,2.8963210702341136
2022-12-14T02:21:56.035Z,3.3812709030100336
2022-12-14T02:44:07.087Z,1.9866220735785953
2022-12-14T02:59:22.377Z,2.2474916387959865
2022-12-14T03:07:26.187Z,2.759197324414716
2022-12-14T03:13:47.269Z,2.859531772575251
2022-12-14T03:24:44.769Z,2.491638795986622
2022-12-14T03:31:06.006Z,2.749163879598662
2022-12-14T03:37:26.735Z,2.3545150501672243
2022-12-14T03:43:49.891Z,2.1739130434782608
2022-12-14T03:58:57.388Z,2.3277591973244145
2022-12-14T04:06:42.731Z,2.842809364548495
2022-12-14T04:13:04.853Z,2.678929765886288
2022-12-14T04:19:26.909Z,2.3043478260869565
2022-12-14T04:30:35.903Z,1.8762541806020068
2022-12-14T04:41:07.851Z,2.2474916387959865
2022-12-14T04:47:32.173Z,2.2441471571906355
2022-12-14T04:58:19.373Z,1.6622073578595318
2022-12-14T05:08:01.653Z,1.6722408026755853
2022-12-14T05:17:18.208Z,1.2374581939799332
2022-12-14T05:23:38.795Z,2.42809364548495
2022-12-14T05:30:00.016Z,1.765886287625418
2022-12-14T05:39:15.172Z,2.160535117056856
2022-12-14T05:45:41.558Z,2.0869565217391304
2022-12-14T05:52:03.270Z,1.9498327759197325
2022-12-14T05:58:25.671Z,2.722408026755853
2022-12-14T06:09:24.975Z,2.076923076923077
2022-12-14T06:15:47.078Z,1.4448160535117056
2022-12-14T06:25:54.759Z,1.665551839464883
2022-12-14T06:32:21.028Z,1.3478260869565217
2022-12-14T06:38:44.874Z,1.8294314381270902
2022-12-14T06:45:06.829Z,1.7190635451505016
2022-12-14T06:51:28.481Z,2.5150501672240804
2022-12-14T07:11:56.075Z,1.7391304347826086
2022-12-14T07:18:19.320Z,2.1103678929765888
2022-12-14T07:24:43.962Z,1.9331103678929766
2022-12-14T07:31:08.303Z,2.4247491638795986
2022-12-14T07:45:37.312Z,2.317725752508361
2022-12-14T07:51:59.454Z,2.290969899665552
2022-12-14T08:03:11.013Z,1.7759197324414715
2022-12-14T08:12:56.576Z,2.3411371237458196
2022-12-14T08:19:18.086Z,2.0066889632107023
2022-12-14T08:25:41.285Z,2.3812709030100336
2022-12-14T08:32:03.000Z,2.096989966555184
2022-12-14T08:38:25.964Z,1.9966555183946488
2022-12-14T08:44:48.211Z,2.130434782608696
2022-12-14T08:57:01.033Z,2.3344481605351173
2022-12-14T09:13:09.148Z,1.7023411371237458
2022-12-14T09:20:49.026Z,2.036789297658863
2022-12-14T09:27:12.701Z,2.678929765886288
2022-12-14T09:37:47.957Z,2.230769230769231
2022-12-14T09:48:08.301Z,1.879598662207358
2022-12-14T09:54:30.878Z,2.100334448160535
2022-12-14T10:04:32.406Z,1.4548494983277591
2022-12-14T10:10:55.117Z,1.431438127090301
2022-12-14T10:20:15.871Z,1.6421404682274248
2022-12-14T10:26:37.836Z,1.0
2022-12-14T10:32:59.461Z,0.9565217391304348
2022-12-14T10:40:41.393Z,1.7926421404682273
2022-12-14T10:47:02.608Z,2.274247491638796
2022-12-14T10:53:24.037Z,2.3645484949832776
2022-12-14T11:00:03.374Z,1.725752508361204
2022-12-14T11:06:51.577Z,1.5117056856187292
2022-12-14T11:13:13.220Z,2.220735785953177
2022-12-14T11:19:34.804Z,1.6789297658862876
2022-12-14T11:29:49.556Z,1.839464882943144
2022-12-14T11:36:11.755Z,2.0434782608695654
2022-12-14T11:42:33.169Z,1.7993311036789297
2022-12-14T11:55:26.198Z,1.2240802675585285
2022-12-14T12:01:51.192Z,1.568561872909699
2022-12-14T12:08:12.684Z,1.4214046822742474
2022-12-14T12:14:34.513Z,1.3444816053511706
2022-12-14T12:24:21.944Z,1.2642140468227425
2022-12-14T12:30:42.967Z,1.5618729096989967
2022-12-14T12:37:26.407Z,1.5919732441471572
2022-12-14T12:47:06.812Z,1.5919732441471572
2022-12-14T12:55:48.988Z,1.7525083612040133
2022-12-14T13:03:33.152Z,1.6354515050167224
2022-12-14T13:09:54.950Z,1.6120401337792643
2022-12-14T13:16:18.618Z,1.9665551839464883
2022-12-14T13:24:39.406Z,1.160535117056856
2022-12-14T13:44:37.458Z,1.648829431438127
2022-12-14T13:51:05.853Z,1.7959866220735785
2022-12-14T14:00:24.077Z,1.431438127090301
2022-12-14T14:06:45.485Z,2.0468227424749164
2022-12-14T14:17:16.164Z,1.2775919732441472
2022-12-14T14:30:31.498Z,1.9632107023411371
2022-12-14T14:36:53.466Z,1.4247491638795986
2022-12-14T14:43:16.722Z,1.6989966555183946
2022-12-14T14:49:38.629Z,1.6622073578595318
2022-12-14T14:55:58.519Z,1.2775919732441472
2022-12-14T15:03:46.679Z,4.6120401337792645
2022-12-14T15:10:08.784Z,4.030100334448161
2022-12-14T15:16:31.728Z,3.7357859531772575
2022-12-14T15:22:53.395Z,2.317725752508361
2022-12-14T15:29:17.582Z,2.3444816053511706
2022-12-14T15:36:27.718Z,2.294314381270903
2022-12-14T15:46:17.683Z,1.391304347826087
2022-12-14T15:56:11.970Z,2.0869565217391304
2022-12-14T16:02:33.447Z,1.4247491638795986
2022-12-14T16:08:55.359Z,1.3879598662207357
2022-12-14T16:15:17.522Z,1.8929765886287626
2022-12-14T16:21:55.162Z,1.7591973244147157
2022-12-14T16:28:21.639Z,2.511705685618729
2022-12-14T16:36:02.259Z,2.4147157190635453
2022-12-14T16:48:06.364Z,2.5652173913043477
2022-12-14T16:56:49.413Z,1.6989966555183946
2022-12-14T17:03:09.555Z,1.806020066889632
2022-12-14T17:20:42.285Z,2.0668896321070234
2022-12-14T17:27:01.989Z,2.3846153846153846
2022-12-14T17:33:24.009Z,1.7123745819397993
2022-12-14T17:42:36.452Z,2.4749163879598663
2022-12-14T17:49:01.496Z,2.240802675585284
2022-12-14T17:55:26.840Z,2.3612040133779266
2022-12-14T18:02:55.937Z,2.5986622073578594
2022-12-14T18:09:15.698Z,2.7759197324414715
2022-12-14T18:21:51.884Z,2.471571906354515
2022-12-14T18:28:14.848Z,3.237458193979933
2022-12-14T18:34:34.169Z,2.705685618729097
2022-12-14T18:44:35.955Z,2.5785953177257523
2022-12-14T18:50:56.790Z,2.923076923076923
2022-12-14T19:08:34.575Z,2.7123745819397995
2022-12-14T19:14:56.654Z,2.9531772575250836
2022-12-14T19:21:20.842Z,2.0
2022-12-14T19:28:25.825Z,2.3779264214046822
2022-12-14T19:38:59.476Z,3.0936454849498327
2022-12-14T19:45:22.519Z,3.137123745819398
2022-12-14T19:58:24.688Z,2.9163879598662206
2022-12-14T20:07:20.996Z,2.588628762541806
2022-12-14T20:18:16.729Z,3.0434782608695654
2022-12-14T20:24:39.826Z,3.5183946488294313
2022-12-14T20:35:16.517Z,3.3578595317725752
2022-12-14T20:41:39.375Z,2.280936454849498
2022-12-14T20:48:22.688Z,2.190635451505017
2022-12-14T20:54:47.694Z,2.1538461538461537
2022-12-14T21:05:39.936Z,2.040133779264214
2022-12-14T21:14:22.623Z,1.605351170568562
2022-12-14T21:24:31.022Z,2.1270903010033444
2022-12-14T21:31:33.461Z,2.588628762541806
2022-12-14T21:37:55.451Z,2.2474916387959865
2022-12-14T21:44:18.669Z,2.3377926421404682
2022-12-14T22:03:17.658Z,2.160535117056856
2022-12-14T22:09:40.598Z,2.5217391304347827
2022-12-14T22:16:01.852Z,2.367892976588629
2022-12-14T22:22:23.233Z,1.9130434782608696
2022-12-14T22:28:44.550Z,1.9431438127090301
2022-12-14T22:35:06.611Z,2.190635451505017
2022-12-14T22:47:13.963Z,2.1237458193979935
2022-12-14T22:57:59.557Z,2.250836120401338
2022-12-14T23:04:23.570Z,1.6387959866220736
2022-12-14T23:10:44.352Z,1.3578595317725752
2022-12-14T23:17:12.753Z,1.7090301003344481
2022-12-14T23:23:35.964Z,1.9297658862876255
2022-12-14T23:32:23.413Z,1.3678929765886287
2022-12-14T23:43:38.825Z,1.979933110367893
